Time;durP1;ratioP1;P1;durP2;ratioP2;P2;SDS_P1;SDS_P2;PMS_P1;PMS_P2;Temp;Humidity;BMP_temperature;BMP_pressure;BME280_temperature;BME280_humidity;BME280_pressure;Samples;Min_cycle;Max_cycle;Signal;HPM_P1;HPM_P2
2023/01/25 00:01:39;;;;;;;7.60;6.90;;;;;;;0.70;100.00;99727.48;109501;1292;22289;-84
2023/01/25 00:04:06;;;;;;;8.10;7.40;;;;;;;0.73;100.00;99727.91;109109;1289;22246;-85
2023/01/25 00:06:35;;;;;;;6.60;5.90;;;;;;;0.76;100.00;99725.34;109178;1296;22325;-86
2023/01/25 00:09:04;;;;;;;7.20;6.50;;;;;;;0.74;100.00;99730.14;109221;1296;22157;-86
2023/01/25 00:16:07;;;;;;;6.70;6.10;;;;;;;0.67;100.00;99716.33;109047;1296;22152;-86
2023/01/25 00:18:38;;;;;;;8.00;7.20;;;;;;;0.67;100.00;99718.21;109036;1290;22425;-83
2023/01/25 00:21:18;;;;;;;7.60;6.80;;;;;;;0.71;100.00;99719.75;108906;1296;22250;-84
2023/01/25 00:23:46;;;;;;;11.30;10.30;;;;;;;0.74;100.00;99716.55;108894;1296;22171;-85
2023/01/25 00:26:15;;;;;;;13.20;12.00;;;;;;;0.76;100.00;99717.34;109033;1296;22216;-84
2023/01/25 00:28:49;;;;;;;11.00;10.00;;;;;;;0.76;100.00;99718.70;108956;1289;22180;-85
2023/01/25 00:31:55;;;;;;;10.20;9.20;;;;;;;0.77;100.00;99721.32;108769;1296;22251;-82
2023/01/25 00:34:23;;;;;;;11.40;10.40;;;;;;;0.80;100.00;99723.19;108563;1298;22231;-87
2023/01/25 00:37:11;;;;;;;12.60;11.40;;;;;;;0.83;100.00;99722.23;108787;1297;23042;-86
2023/01/25 00:39:40;;;;;;;13.10;11.90;;;;;;;0.85;100.00;99722.66;108781;1298;22204;-86
2023/01/25 00:42:13;;;;;;;11.90;10.80;;;;;;;0.86;100.00;99721.04;108787;1298;23329;-84
2023/01/25 00:44:45;;;;;;;10.20;9.20;;;;;;;0.81;100.00;99722.09;108785;1297;22250;-86
2023/01/25 00:47:14;;;;;;;10.90;9.90;;;;;;;0.82;100.00;99715.48;108578;1297;23064;-85
2023/01/25 00:49:44;;;;;;;9.60;8.70;;;;;;;0.83;100.00;99708.54;108773;1298;22233;-85
2023/01/25 00:52:13;;;;;;;10.00;9.00;;;;;;;0.85;100.00;99707.21;108581;1298;22299;-85
2023/01/25 00:54:41;;;;;;;10.00;9.10;;;;;;;0.85;100.00;99703.92;108690;1298;22273;-86
2023/01/25 00:57:09;;;;;;;9.90;9.00;;;;;;;0.82;100.00;99697.11;109028;1297;22224;-86
2023/01/25 00:59:37;;;;;;;12.10;10.90;;;;;;;0.81;100.00;99698.44;109019;1297;22337;-85
2023/01/25 01:02:05;;;;;;;10.90;9.90;;;;;;;0.80;100.00;99694.54;109045;1297;22142;-84
2023/01/25 01:04:33;;;;;;;12.50;11.40;;;;;;;0.82;100.00;99692.69;109056;1297;22276;-85
2023/01/25 01:07:01;;;;;;;13.70;12.50;;;;;;;0.84;100.00;99695.05;108826;1297;22160;-87
2023/01/25 01:09:29;;;;;;;10.90;9.90;;;;;;;0.87;100.00;99695.52;109063;1297;22189;-87
2023/01/25 01:11:57;;;;;;;11.00;9.90;;;;;;;0.91;100.00;99694.94;108832;1297;22352;-83
2023/01/25 01:14:25;;;;;;;12.60;11.50;;;;;;;0.94;100.00;99690.23;108779;1297;22265;-86
2023/01/25 01:16:53;;;;;;;13.50;12.30;;;;;;;0.93;100.00;99684.99;108776;1297;22986;-87
2023/01/25 01:19:24;;;;;;;12.10;11.10;;;;;;;0.88;100.00;99682.19;108769;1298;22262;-86
2023/01/25 01:21:52;;;;;;;11.20;10.20;;;;;;;0.87;100.00;99668.51;108769;1297;22246;-86
2023/01/25 01:24:22;;;;;;;11.30;10.20;;;;;;;0.87;100.00;99663.59;108758;1297;22974;-87
2023/01/25 01:26:50;;;;;;;12.80;11.70;;;;;;;0.89;100.00;99666.30;108782;1297;22207;-87
2023/01/25 01:29:18;;;;;;;12.60;11.50;;;;;;;0.92;100.00;99666.13;108765;1297;22310;-87
2023/01/25 01:31:50;;;;;;;11.30;10.30;;;;;;;0.94;100.00;99666.86;108788;1297;22232;-87
2023/01/25 01:34:24;;;;;;;13.60;12.40;;;;;;;0.91;100.00;99657.05;108681;1297;22202;-87
2023/01/25 01:36:52;;;;;;;11.80;10.80;;;;;;;0.89;100.00;99657.27;108682;1297;22266;-86
2023/01/25 01:39:20;;;;;;;11.00;10.00;;;;;;;0.88;100.00;99645.69;108796;1286;22173;-86
2023/01/25 01:41:48;;;;;;;10.50;9.60;;;;;;;0.88;100.00;99644.63;108781;1297;22253;-87
2023/01/25 01:44:19;;;;;;;11.30;10.40;;;;;;;0.89;100.00;99639.45;108764;1283;22186;-87
2023/01/25 01:46:57;;;;;;;12.50;11.40;;;;;;;0.90;100.00;99633.64;108762;1297;22241;-87
2023/01/25 01:49:31;;;;;;;11.20;10.10;;;;;;;0.89;100.00;99639.36;108542;1298;22185;-87
2023/01/25 01:52:15;;;;;;;10.50;9.50;;;;;;;0.87;100.00;99635.64;108775;1297;22240;-86
2023/01/25 01:55:00;;;;;;;10.40;9.40;;;;;;;0.89;100.00;99634.46;108696;1297;22159;-87
2023/01/25 01:57:36;;;;;;;9.40;8.50;;;;;;;0.94;100.00;99628.02;108792;1297;22888;-87
2023/01/25 02:00:24;;;;;;;9.90;9.00;;;;;;;0.97;100.00;99624.38;108544;1297;23201;-86
2023/01/25 02:02:54;;;;;;;11.10;10.10;;;;;;;0.96;100.00;99621.64;108772;1297;23029;-86
2023/01/25 02:05:39;;;;;;;10.70;9.70;;;;;;;0.95;100.00;99618.16;108559;1297;22276;-88
2023/01/25 02:08:12;;;;;;;12.70;11.50;;;;;;;0.92;100.00;99608.02;108577;1297;22268;-86
2023/01/25 02:10:42;;;;;;;12.10;11.00;;;;;;;0.93;100.00;99610.89;108571;1297;23027;-87
2023/01/25 02:13:10;;;;;;;11.80;10.60;;;;;;;0.98;100.00;99606.27;108784;1297;22307;-86
2023/01/25 02:15:50;;;;;;;11.90;10.90;;;;;;;1.01;100.00;99609.95;108796;1297;22242;-86
2023/01/25 02:18:19;;;;;;;13.10;10.70;;;;;;;1.00;100.00;99612.73;108791;1297;22253;-87
2023/01/25 02:20:50;;;;;;;13.10;12.00;;;;;;;0.97;100.00;99607.07;108792;1297;22233;-85
2023/01/25 02:23:30;;;;;;;12.40;11.30;;;;;;;0.97;100.00;99605.36;108784;1297;22251;-86
2023/01/25 02:26:01;;;;;;;13.00;11.90;;;;;;;1.00;100.00;99599.62;108807;1297;22240;-85
2023/01/25 02:28:37;;;;;;;14.80;13.50;;;;;;;1.05;100.00;99601.15;108772;1297;22131;-86
2023/01/25 02:31:05;;;;;;;13.80;12.60;;;;;;;1.06;100.00;99603.09;108786;1297;22431;-87
2023/01/25 02:33:33;;;;;;;16.00;14.70;;;;;;;1.03;100.00;99603.67;108784;1297;22234;-87
2023/01/25 02:36:26;;;;;;;16.40;14.90;;;;;;;0.97;100.00;99609.11;108582;1297;22240;-88
2023/01/25 02:39:01;;;;;;;15.20;13.90;;;;;;;0.90;100.00;99608.34;107928;1304;22359;-86
2023/01/25 02:41:40;;;;;;;12.50;11.50;;;;;;;0.89;100.00;99609.31;108009;1304;22468;-87
2023/01/25 02:44:22;;;;;;;12.10;11.10;;;;;;;0.89;100.00;99606.52;107885;1304;22192;-87
2023/01/25 02:46:51;;;;;;;11.20;10.10;;;;;;;0.91;100.00;99609.61;107797;1304;22262;-87
2023/01/25 02:49:19;;;;;;;16.30;10.10;;;;;;;0.94;100.00;99607.83;107840;1304;23008;-89
2023/01/25 02:51:54;;;;;;;13.00;11.90;;;;;;;0.96;100.00;99610.86;107903;1304;22356;-88
2023/01/25 02:54:25;;;;;;;11.20;10.20;;;;;;;0.96;100.00;99608.13;107899;1304;22362;-89
2023/01/25 02:56:54;;;;;;;10.60;9.70;;;;;;;0.92;100.00;99606.73;107880;1304;22335;-88
2023/01/25 02:59:23;;;;;;;10.50;9.50;;;;;;;0.92;100.00;99604.58;107911;1304;22353;-88
2023/01/25 03:01:54;;;;;;;10.80;9.40;;;;;;;0.97;100.00;99603.10;107870;1304;22271;-88
2023/01/25 03:04:22;;;;;;;10.90;9.90;;;;;;;1.03;100.00;99602.86;107890;1304;22297;-89
2023/01/25 03:06:50;;;;;;;11.00;10.00;;;;;;;1.04;100.00;99600.17;107893;1304;22265;-89
2023/01/25 03:09:19;;;;;;;14.10;12.90;;;;;;;1.06;100.00;99598.17;107764;1304;22335;-88
2023/01/25 03:11:48;;;;;;;15.60;14.10;;;;;;;1.05;100.00;99595.84;107896;1304;22241;-88
2023/01/25 03:14:16;;;;;;;14.20;12.90;;;;;;;1.08;100.00;99598.85;107886;1304;22299;-87
2023/01/25 03:16:44;;;;;;;13.60;12.30;;;;;;;1.08;100.00;99598.30;108344;1298;22217;-87
2023/01/25 03:19:12;;;;;;;13.20;12.00;;;;;;;1.10;100.00;99598.63;108558;1297;22144;-87
2023/01/25 03:21:40;;;;;;;13.60;12.30;;;;;;;1.13;100.00;99598.76;108794;1297;22232;-85
2023/01/25 03:24:10;;;;;;;13.80;12.50;;;;;;;1.11;100.00;99603.40;108556;1297;22315;-86
2023/01/25 03:29:34;;;;;;;16.40;14.90;;;;;;;1.04;100.00;99601.85;108774;1297;22277;-85
2023/01/25 03:32:03;;;;;;;16.00;14.70;;;;;;;1.08;100.00;99595.81;108774;1297;22246;-85
2023/01/25 03:34:31;;;;;;;16.50;14.90;;;;;;;1.11;100.00;99594.37;108657;1297;22216;-84
2023/01/25 03:37:00;;;;;;;18.90;17.30;;;;;;;1.11;100.00;99596.05;108760;1298;23114;-86
2023/01/25 03:39:30;;;;;;;24.90;22.40;;;;;;;1.12;100.00;99592.59;108778;1297;22971;-86
2023/01/25 03:41:58;;;;;;;30.40;27.30;;;;;;;1.08;100.00;99586.19;108801;1297;22142;-87
2023/01/25 03:44:26;;;;;;;30.30;27.20;;;;;;;1.07;100.00;99588.02;108657;1297;22202;-85
2023/01/25 03:46:54;;;;;;;31.10;28.00;;;;;;;1.08;100.00;99587.09;108788;1298;22304;-85
2023/01/25 03:49:22;;;;;;;23.70;21.40;;;;;;;1.10;100.00;99585.63;108665;1297;22313;-86
2023/01/25 03:51:51;;;;;;;22.30;20.20;;;;;;;1.14;100.00;99583.56;108769;1297;22320;-84
2023/01/25 03:54:19;;;;;;;19.40;17.70;;;;;;;1.17;100.00;99584.95;108654;1297;22593;-85
2023/01/25 03:56:47;;;;;;;26.10;23.60;;;;;;;1.11;100.00;99582.61;108554;1297;22210;-85
2023/01/25 03:59:20;;;;;;;26.50;24.20;;;;;;;1.06;100.00;99580.13;108584;1298;22306;-83
2023/01/25 04:01:50;;;;;;;20.20;18.50;;;;;;;1.01;100.00;99575.81;108791;1298;22166;-83
2023/01/25 04:04:18;;;;;;;17.60;16.00;;;;;;;1.02;100.00;99577.13;108573;1297;23397;-85
2023/01/25 04:06:46;;;;;;;18.30;16.50;;;;;;;1.02;100.00;99571.08;108779;1298;22268;-87
2023/01/25 04:09:15;;;;;;;18.60;16.90;;;;;;;1.02;100.00;99570.39;108785;1298;22214;-85
2023/01/25 04:11:50;;;;;;;21.20;19.40;;;;;;;1.06;100.00;99568.16;108786;1298;22211;-85
2023/01/25 04:14:19;;;;;;;18.50;16.70;;;;;;;1.05;100.00;99565.34;108797;1297;22194;-87
2023/01/25 04:17:07;;;;;;;19.90;18.10;;;;;;;1.05;100.00;99557.73;108760;1297;22635;-85
2023/01/25 04:19:53;;;;;;;20.70;18.80;;;;;;;1.04;100.00;99556.02;108822;1298;22234;-86
2023/01/25 04:22:25;;;;;;;18.00;16.40;;;;;;;1.05;100.00;99553.40;108831;1298;22219;-86
2023/01/25 04:24:54;;;;;;;17.60;16.00;;;;;;;1.09;100.00;99552.54;108527;1297;22234;-83
2023/01/25 04:27:23;;;;;;;18.40;16.80;;;;;;;1.10;100.00;99554.26;108624;1297;22226;-85
2023/01/25 04:29:59;;;;;;;18.00;16.50;;;;;;;1.11;100.00;99549.58;108595;1297;22990;-85
2023/01/25 04:32:27;;;;;;;18.70;16.90;;;;;;;1.11;100.00;99548.92;108829;1297;22158;-85
2023/01/25 04:34:56;;;;;;;22.50;20.70;;;;;;;1.10;100.00;99550.05;108630;1297;22236;-85
2023/01/25 04:37:26;;;;;;;20.30;18.60;;;;;;;1.09;100.00;99552.16;108811;1297;22160;-86
2023/01/25 04:39:57;;;;;;;20.90;19.00;;;;;;;1.08;100.00;99551.72;108825;1297;22258;-86
2023/01/25 04:42:26;;;;;;;21.20;19.30;;;;;;;1.09;100.00;99549.11;108571;1297;22314;-85
2023/01/25 04:44:55;;;;;;;21.00;19.10;;;;;;;1.13;100.00;99546.15;108814;1297;22661;-84
2023/01/25 04:47:23;;;;;;;25.60;23.40;;;;;;;1.13;100.00;99547.41;108824;1297;22279;-85
2023/01/25 04:49:52;;;;;;;24.80;22.80;;;;;;;1.12;100.00;99545.08;108592;1297;22257;-84
2023/01/25 04:52:22;;;;;;;27.60;25.10;;;;;;;1.08;100.00;99545.76;108668;1297;22242;-84
2023/01/25 04:54:50;;;;;;;25.10;22.90;;;;;;;1.02;100.00;99539.27;108781;1297;22223;-84
2023/01/25 04:57:19;;;;;;;21.80;19.70;;;;;;;1.02;100.00;99534.65;108818;1297;22253;-85
2023/01/25 04:59:50;;;;;;;19.90;18.20;;;;;;;1.02;100.00;99528.81;108600;1297;22223;-83
2023/01/25 05:02:21;;;;;;;16.20;14.70;;;;;;;1.04;100.00;99521.96;108920;1297;22276;-85
2023/01/25 05:04:50;;;;;;;20.90;19.20;;;;;;;1.04;100.00;99527.80;108555;1297;22148;-84
2023/01/25 05:07:19;;;;;;;21.10;19.30;;;;;;;1.05;100.00;99531.92;108576;1297;23106;-83
2023/01/25 05:09:47;;;;;;;19.70;18.10;;;;;;;1.03;100.00;99531.64;108604;1297;22249;-85
2023/01/25 05:12:16;;;;;;;18.40;16.80;;;;;;;1.00;100.00;99529.45;108966;1297;22210;-87
2023/01/25 05:14:56;;;;;;;15.60;14.20;;;;;;;0.99;100.00;99533.24;108784;1297;22195;-85
2023/01/25 05:17:25;;;;;;;15.00;13.70;;;;;;;1.01;100.00;99527.59;108651;1298;22251;-84
2023/01/25 05:19:53;;;;;;;17.20;15.70;;;;;;;1.04;100.00;99527.44;108623;1297;22334;-86
2023/01/25 05:22:22;;;;;;;15.60;14.20;;;;;;;1.06;100.00;99529.89;108849;1297;22188;-86
2023/01/25 05:24:52;;;;;;;15.10;13.80;;;;;;;1.02;100.00;99526.86;108831;1297;22979;-87
2023/01/25 05:27:21;;;;;;;14.10;12.70;;;;;;;1.00;100.00;99525.52;108834;1297;22224;-87
2023/01/25 05:29:56;;;;;;;13.70;12.50;;;;;;;0.99;100.00;99524.27;108809;1297;22209;-83
2023/01/25 05:32:42;;;;;;;11.20;10.30;;;;;;;1.02;100.00;99522.28;108815;1298;22995;-86
2023/01/25 05:35:13;;;;;;;12.70;11.70;;;;;;;1.07;100.00;99514.01;108609;1297;22190;-84
2023/01/25 05:37:43;;;;;;;16.40;15.10;;;;;;;1.10;100.00;99514.52;108777;1297;22125;-85
2023/01/25 05:40:16;;;;;;;25.90;23.60;;;;;;;1.09;100.00;99511.74;108895;1297;23017;-85
2023/01/25 05:42:52;;;;;;;33.60;30.80;;;;;;;1.09;100.00;99506.71;109046;1297;22293;-85
2023/01/25 05:45:20;;;;;;;54.30;49.30;;;;;;;1.08;100.00;99508.35;108807;1297;22244;-85
2023/01/25 05:47:53;;;;;;;56.70;51.90;;;;;;;1.09;100.00;99506.60;108604;1297;22231;-85
2023/01/25 05:50:22;;;;;;;36.00;32.80;;;;;;;1.12;100.00;99509.63;108610;1297;22203;-85
2023/01/25 05:53:24;;;;;;;29.30;26.80;;;;;;;1.13;100.00;99513.39;108631;1297;22388;-85
2023/01/25 05:55:52;;;;;;;40.10;36.70;;;;;;;1.10;100.00;99510.43;108792;1297;22214;-85
2023/01/25 05:58:22;;;;;;;31.50;28.90;;;;;;;1.07;100.00;99513.13;108802;1297;22201;-84
2023/01/25 06:00:49;;;;;;;31.10;28.50;;;;;;;1.01;100.00;99513.17;108682;1297;22791;-85
2023/01/25 06:03:24;;;;;;;27.30;25.00;;;;;;;1.01;100.00;99510.84;108572;1297;22991;-85
2023/01/25 06:05:57;;;;;;;26.50;24.30;;;;;;;1.06;100.00;99515.15;108790;1297;22243;-84
2023/01/25 06:08:25;;;;;;;24.30;22.20;;;;;;;1.09;100.00;99519.55;108593;1297;23071;-88
2023/01/25 06:10:54;;;;;;;28.80;26.30;;;;;;;1.09;100.00;99517.91;108797;1297;22164;-85
2023/01/25 06:13:22;;;;;;;23.50;21.50;;;;;;;1.09;100.00;99520.09;108566;1297;22217;-84
2023/01/25 06:15:55;;;;;;;28.20;25.80;;;;;;;1.09;100.00;99520.52;108804;1297;22246;-89
2023/01/25 06:18:49;;;;;;;45.70;41.30;;;;;;;1.07;100.00;99521.11;108601;1297;22931;-85
2023/01/25 06:21:26;;;;;;;32.30;29.20;;;;;;;1.05;100.00;99523.73;108572;1297;22927;-88
2023/01/25 06:23:54;;;;;;;24.50;22.20;;;;;;;1.08;100.00;99523.75;108838;1297;22382;-86
2023/01/25 06:26:22;;;;;;;22.60;20.70;;;;;;;1.07;100.00;99519.60;108912;1297;22195;-88
2023/01/25 06:28:50;;;;;;;18.10;16.50;;;;;;;1.08;100.00;99514.92;108796;1297;22270;-86
2023/01/25 06:31:20;;;;;;;18.80;17.20;;;;;;;1.04;100.00;99508.48;108803;1297;22211;-85
2023/01/25 06:33:50;;;;;;;19.50;17.90;;;;;;;1.04;100.00;99509.31;108811;1297;22348;-91
2023/01/25 06:36:21;;;;;;;23.00;21.00;;;;;;;1.03;100.00;99510.40;108806;1297;22806;-88
2023/01/25 06:38:50;;;;;;;22.70;20.50;;;;;;;1.05;100.00;99510.81;108836;1295;22235;-87
2023/01/25 06:41:19;;;;;;;28.00;25.30;;;;;;;1.07;100.00;99510.46;108538;1297;22204;-86
2023/01/25 06:43:50;;;;;;;31.50;28.60;;;;;;;1.05;100.00;99508.66;108812;1297;22264;-87
2023/01/25 06:46:19;;;;;;;33.10;30.10;;;;;;;1.03;100.00;99504.11;108792;1297;22263;-87
2023/01/25 06:48:47;;;;;;;38.20;34.50;;;;;;;1.02;100.00;99503.86;108553;1297;23194;-86
2023/01/25 06:51:16;;;;;;;34.40;31.40;;;;;;;1.02;100.00;99502.59;108773;1297;23068;-87
2023/01/25 06:53:46;;;;;;;33.70;30.60;;;;;;;1.00;100.00;99495.97;108541;1297;22204;-86
2023/01/25 06:56:20;;;;;;;32.90;30.10;;;;;;;1.01;100.00;99497.81;108774;1297;22251;-83
2023/01/25 06:58:49;;;;;;;33.10;30.40;;;;;;;1.01;100.00;99495.48;108782;1297;22261;-85
2023/01/25 07:01:25;;;;;;;37.30;34.00;;;;;;;1.01;100.00;99496.79;108785;1297;22228;-86
2023/01/25 07:03:56;;;;;;;32.60;29.90;;;;;;;1.00;100.00;99492.63;108766;1297;22244;-83
2023/01/25 07:06:25;;;;;;;32.70;29.90;;;;;;;1.02;100.00;99489.35;108786;1297;22310;-86
2023/01/25 07:08:53;;;;;;;25.40;23.20;;;;;;;1.03;100.00;99487.75;108754;1297;22977;-87
2023/01/25 07:11:21;;;;;;;23.60;21.60;;;;;;;1.05;100.00;99493.70;108796;1297;23165;-86
2023/01/25 07:13:49;;;;;;;23.40;21.50;;;;;;;1.03;100.00;99490.40;108810;1297;22257;-86
2023/01/25 07:16:19;;;;;;;23.70;21.80;;;;;;;1.04;100.00;99482.20;108780;1297;22217;-85
2023/01/25 07:18:47;;;;;;;21.10;19.40;;;;;;;1.00;100.00;99481.08;108560;1297;22252;-85
2023/01/25 07:21:19;;;;;;;21.30;19.50;;;;;;;0.97;100.00;99481.34;108801;1297;23150;-85
2023/01/25 07:23:49;;;;;;;27.60;25.20;;;;;;;0.95;100.00;99490.60;108802;1298;22272;-83
2023/01/25 07:26:22;;;;;;;29.20;26.30;;;;;;;0.96;100.00;99489.74;108781;1297;22240;-82
2023/01/25 07:28:51;;;;;;;24.40;22.40;;;;;;;0.97;100.00;99485.14;108772;1297;22234;-83
2023/01/25 07:31:19;;;;;;;27.40;25.20;;;;;;;0.93;100.00;99482.71;108769;1297;23244;-81
2023/01/25 07:33:51;;;;;;;29.10;26.40;;;;;;;0.90;100.00;99474.08;108640;1297;22258;-87
2023/01/25 07:36:20;;;;;;;27.50;25.10;;;;;;;0.86;100.00;99470.68;108764;1297;22983;-83
2023/01/25 07:38:52;;;;;;;27.40;24.90;;;;;;;0.87;100.00;99473.50;108759;1297;22809;-82
2023/01/25 07:41:20;;;;;;;30.50;27.70;;;;;;;0.93;100.00;99473.84;108806;1297;22163;-89
2023/01/25 07:43:49;;;;;;;31.50;28.60;;;;;;;0.96;100.00;99474.73;108799;1297;22175;-84
2023/01/25 07:46:28;;;;;;;29.30;26.70;;;;;;;0.99;100.00;99475.64;108789;1297;22257;-84
2023/01/25 07:48:57;;;;;;;25.70;23.60;;;;;;;0.94;100.00;99476.02;108779;1297;22250;-83
2023/01/25 07:51:26;;;;;;;26.40;24.10;;;;;;;0.92;100.00;99475.52;108761;1297;22299;-84
2023/01/25 07:53:57;;;;;;;22.50;20.50;;;;;;;0.90;100.00;99474.69;108548;1297;22341;-85
2023/01/25 07:56:28;;;;;;;23.50;21.40;;;;;;;0.92;100.00;99472.63;108762;1297;22294;-85
2023/01/25 07:58:58;;;;;;;25.10;23.00;;;;;;;0.95;100.00;99467.13;108783;1297;22275;-84
2023/01/25 08:01:27;;;;;;;27.30;25.00;;;;;;;0.95;100.00;99462.83;108561;1297;22249;-84
2023/01/25 08:03:56;;;;;;;24.30;22.00;;;;;;;0.95;100.00;99461.60;108572;1297;22229;-82
2023/01/25 08:06:30;;;;;;;24.80;22.60;;;;;;;0.97;100.00;99456.20;108768;1297;22224;-84
2023/01/25 08:08:58;;;;;;;26.20;23.60;;;;;;;0.99;100.00;99454.81;108766;1294;22282;-84
2023/01/25 08:11:28;;;;;;;26.20;23.70;;;;;;;1.05;100.00;99456.67;108809;1297;22185;-84
2023/01/25 08:13:56;;;;;;;31.70;28.40;;;;;;;1.09;100.00;99458.20;108800;1297;22235;-85
2023/01/25 08:16:26;;;;;;;33.20;27.00;;;;;;;1.10;100.00;99456.32;108780;1297;22921;-86
2023/01/25 08:18:57;;;;;;;28.30;25.40;;;;;;;1.05;100.00;99452.64;108788;1297;22276;-85
2023/01/25 08:21:29;;;;;;;27.50;24.80;;;;;;;1.04;100.00;99453.80;108794;1297;22266;-83
2023/01/25 08:23:59;;;;;;;28.80;25.60;;;;;;;1.10;100.00;99450.80;108815;1297;22267;-85
2023/01/25 08:26:27;;;;;;;30.80;27.80;;;;;;;1.18;100.00;99450.43;108817;1297;22156;-84
2023/01/25 08:28:56;;;;;;;30.20;27.60;;;;;;;1.18;100.00;99443.40;108814;1297;22383;-82
2023/01/25 08:31:30;;;;;;;26.90;24.40;;;;;;;1.13;100.00;99442.11;108589;1297;22930;-86
2023/01/25 08:33:59;;;;;;;31.00;27.90;;;;;;;1.06;100.00;99442.09;108596;1297;22895;-85
2023/01/25 08:36:28;;;;;;;28.40;25.00;;;;;;;1.03;100.00;99438.24;108843;1297;22204;-83
2023/01/25 08:38:59;;;;;;;27.50;24.60;;;;;;;1.02;100.00;99433.42;108817;1297;23092;-85
2023/01/25 08:41:29;;;;;;;24.50;22.20;;;;;;;1.08;100.00;99434.77;108812;1297;22163;-85
2023/01/25 08:43:57;;;;;;;27.70;25.10;;;;;;;1.10;100.00;99434.31;108775;1297;22214;-84
2023/01/25 08:46:28;;;;;;;23.10;21.00;;;;;;;1.12;100.00;99429.13;108781;1297;22896;-85
2023/01/25 08:49:00;;;;;;;21.90;20.10;;;;;;;1.13;100.00;99426.80;108789;1297;22224;-85
2023/01/25 08:51:30;;;;;;;22.70;20.70;;;;;;;1.11;100.00;99422.42;108763;1297;22251;-85
2023/01/25 08:54:06;;;;;;;22.40;20.20;;;;;;;1.13;100.00;99421.16;108775;1297;22245;-85
2023/01/25 08:56:39;;;;;;;17.70;16.10;;;;;;;1.14;100.00;99419.29;108798;1297;22286;-84
2023/01/25 08:59:11;;;;;;;17.20;15.60;;;;;;;1.18;100.00;99420.23;108782;1297;22243;-84
2023/01/25 09:01:39;;;;;;;17.50;15.90;;;;;;;1.25;100.00;99420.42;108805;1297;22255;-85
2023/01/25 09:04:08;;;;;;;18.20;16.60;;;;;;;1.34;100.00;99421.63;108780;1297;22291;-84
2023/01/25 09:06:36;;;;;;;29.70;27.10;;;;;;;1.44;100.00;99424.63;108772;1297;22269;-85
2023/01/25 09:09:04;;;;;;;31.00;28.30;;;;;;;1.49;100.00;99418.91;108776;1297;22913;-85
2023/01/25 09:11:33;;;;;;;27.60;25.20;;;;;;;1.52;100.00;99423.45;108787;1297;22202;-84
2023/01/25 09:14:01;;;;;;;21.80;19.90;;;;;;;1.54;100.00;99420.18;108562;1298;22155;-85
2023/01/25 09:16:29;;;;;;;35.50;32.30;;;;;;;1.60;100.00;99417.45;108772;1297;22260;-84
2023/01/25 09:19:04;;;;;;;31.30;28.70;;;;;;;1.72;100.00;99418.96;108619;1297;22992;-84
2023/01/25 09:21:32;;;;;;;28.60;26.10;;;;;;;1.79;100.00;99415.48;108570;1297;22241;-84
2023/01/25 09:24:00;;;;;;;27.00;24.70;;;;;;;1.82;100.00;99417.63;108782;1297;22163;-84
2023/01/25 09:26:37;;;;;;;22.50;20.40;;;;;;;1.86;100.00;99412.64;108780;1298;22345;-84
2023/01/25 09:29:06;;;;;;;19.70;18.10;;;;;;;1.92;100.00;99406.50;108775;1292;22903;-83
2023/01/25 09:31:38;;;;;;;20.40;18.50;;;;;;;1.98;100.00;99405.64;108771;1297;23031;-84
2023/01/25 09:34:35;;;;;;;17.80;16.30;;;;;;;2.08;100.00;99397.74;108746;1298;22266;-83
2023/01/25 09:37:03;;;;;;;23.10;21.10;;;;;;;2.11;100.00;99393.64;108807;1297;22231;-83
2023/01/25 09:39:31;;;;;;;21.10;19.30;;;;;;;2.15;100.00;99389.39;108806;1297;22233;-83
2023/01/25 09:41:59;;;;;;;18.30;16.70;;;;;;;2.15;100.00;99386.73;108780;1297;23048;-84
2023/01/25 09:44:51;;;;;;;16.70;15.30;;;;;;;2.16;100.00;99383.23;108833;1297;22250;-87
2023/01/25 09:47:30;;;;;;;17.80;16.10;;;;;;;2.17;100.00;99378.25;108819;1297;22222;-87
2023/01/25 09:50:15;;;;;;;16.70;15.20;;;;;;;2.23;99.99;99370.58;108809;1294;22228;-86
2023/01/25 09:52:52;;;;;;;;;;;;;;;2.34;99.99;99361.55;108819;1297;23323;-86
2023/01/25 09:55:25;;;;;;;16.20;14.80;;;;;;;2.37;99.86;99352.05;108803;1297;22807;-84
2023/01/25 09:57:55;;;;;;;18.80;17.00;;;;;;;2.41;99.96;99344.76;108802;1297;22337;-86
2023/01/25 10:00:32;;;;;;;44.10;40.00;;;;;;;2.46;99.90;99343.09;108639;1297;22162;-86
2023/01/25 10:03:07;;;;;;;16.40;15.00;;;;;;;2.50;99.83;99344.23;108790;1297;22871;-85
2023/01/25 10:05:50;;;;;;;12.40;11.30;;;;;;;2.50;99.03;99353.03;108769;1282;22241;-86
2023/01/25 10:08:57;;;;;;;11.70;10.60;;;;;;;2.45;98.98;99357.25;108792;1297;22270;-87
2023/01/25 10:11:28;;;;;;;28.80;26.50;;;;;;;2.43;99.19;99349.04;108652;1297;22199;-86
2023/01/25 10:13:57;;;;;;;24.10;22.10;;;;;;;2.43;99.40;99346.20;108855;1297;22942;-86
2023/01/25 10:16:48;;;;;;;16.90;15.40;;;;;;;2.46;99.65;99342.72;108807;1297;23080;-85
2023/01/25 10:19:16;;;;;;;13.10;11.90;;;;;;;2.47;98.87;99334.13;108866;1297;22225;-86
2023/01/25 10:21:49;;;;;;;15.50;13.80;;;;;;;2.47;98.89;99333.10;108832;1297;22376;-84
2023/01/25 10:24:20;;;;;;;13.90;12.50;;;;;;;2.51;98.92;99323.89;108776;1282;22181;-86
2023/01/25 10:26:55;;;;;;;13.70;12.30;;;;;;;2.54;98.78;99319.21;108656;1297;22210;-85
2023/01/25 10:29:30;;;;;;;14.50;13.20;;;;;;;2.56;98.34;99312.94;108626;1297;22260;-84
2023/01/25 10:32:10;;;;;;;17.80;16.10;;;;;;;2.54;98.04;99311.63;108533;1297;23137;-86
2023/01/25 10:34:45;;;;;;;16.80;15.30;;;;;;;2.52;97.87;99308.48;108825;1297;22234;-85
2023/01/25 10:37:28;;;;;;;14.40;13.00;;;;;;;2.53;98.49;99303.48;108818;1297;23019;-86
2023/01/25 10:40:03;;;;;;;15.70;14.20;;;;;;;2.55;98.15;99296.56;108804;1297;22228;-84
2023/01/25 10:42:47;;;;;;;23.40;21.00;;;;;;;2.54;97.69;99294.84;108791;1297;22411;-85
2023/01/25 10:45:16;;;;;;;15.10;13.70;;;;;;;2.59;98.10;99296.34;108840;1297;22064;-85
2023/01/25 10:48:10;;;;;;;13.20;12.10;;;;;;;2.57;97.25;99289.52;108850;1297;23015;-85
2023/01/25 10:50:41;;;;;;;13.30;12.20;;;;;;;2.52;97.21;99293.34;109074;1292;22461;-83
2023/01/25 10:53:31;;;;;;;10.90;9.90;;;;;;;2.51;97.84;99297.81;109255;1292;22295;-84
2023/01/25 10:56:23;;;;;;;12.10;11.00;;;;;;;2.51;97.97;99291.95;109238;1296;23046;-85
2023/01/25 10:59:07;;;;;;;31.00;28.00;;;;;;;2.53;97.89;99285.27;109229;1296;22329;-84
2023/01/25 11:01:36;;;;;;;12.30;11.10;;;;;;;2.57;97.80;99283.16;109097;1296;22265;-84
2023/01/25 11:04:34;;;;;;;10.80;9.80;;;;;;;2.63;98.05;99280.02;109041;1296;22287;-84
2023/01/25 11:07:04;;;;;;;15.10;13.70;;;;;;;2.70;97.71;99274.95;108877;1296;22376;-86
2023/01/25 11:09:36;;;;;;;11.10;10.10;;;;;;;2.69;97.16;99268.14;108855;1296;22244;-85
2023/01/25 11:12:10;;;;;;;12.20;11.10;;;;;;;2.66;97.11;99263.70;108865;1296;22211;-83
2023/01/25 11:14:39;;;;;;;15.80;14.50;;;;;;;2.59;96.56;99256.20;108973;1296;22146;-85
2023/01/25 11:17:23;;;;;;;15.20;13.90;;;;;;;2.53;96.64;99253.39;109315;1296;22232;-84
2023/01/25 11:20:06;;;;;;;;;;;;;;;2.43;96.06;99251.63;109337;1296;22347;-88
2023/01/25 11:22:34;;;;;;;11.40;10.40;;;;;;;2.33;96.08;99251.31;109238;1296;22238;-85
2023/01/25 11:25:24;;;;;;;8.00;7.30;;;;;;;2.24;95.60;99248.73;109105;1296;22707;-85
2023/01/25 11:32:38;;;;;;;10.20;9.00;;;;;;;2.20;95.06;99233.81;109097;1296;22187;-87
2023/01/25 11:35:14;;;;;;;10.90;9.90;;;;;;;2.18;94.65;99233.86;108815;1296;189841;-87
2023/01/25 11:38:04;;;;;;;8.50;7.70;;;;;;;2.15;94.67;99226.44;108953;1296;22285;-85
2023/01/25 11:40:52;;;;;;;11.90;10.90;;;;;;;2.19;95.39;99223.11;108953;1286;22227;-88
2023/01/25 11:43:45;;;;;;;11.30;10.30;;;;;;;2.21;94.69;99220.69;108788;1296;22195;-86
2023/01/25 11:46:39;;;;;;;11.80;10.70;;;;;;;2.19;93.97;99215.29;108936;1296;22160;-84
2023/01/25 11:49:18;;;;;;;15.60;14.20;;;;;;;2.21;93.86;99207.43;108882;1296;22243;-85